Time;durP1;ratioP1;P1;durP2;ratioP2;P2;SDS_P1;SDS_P2;PMS_P1;PMS_P2;Temp;Humidity;BMP_temperature;BMP_pressure;BME280_temperature;BME280_humidity;BME280_pressure;Samples;Min_cycle;Max_cycle;Signal;HPM_P1;HPM_P2
2022/07/03 00:00:29;;;;;;;1.13;0.57;;;19.20;72.30;;;;;;2061451;28;20047;-92
2022/07/03 00:01:31;;;;;;;1.17;0.55;;;19.20;72.40;;;;;;2069768;28;20030;-93
2022/07/03 00:02:31;;;;;;;0.90;0.40;;;19.20;72.40;;;;;;2052538;28;20099;-93
2022/07/03 00:03:32;;;;;;;2.47;0.65;;;19.20;72.50;;;;;;2043712;29;20036;-92
2022/07/03 00:04:33;;;;;;;1.05;0.47;;;19.20;72.50;;;;;;2052712;29;20077;-92
2022/07/03 00:05:34;;;;;;;2.50;0.50;;;19.20;72.50;;;;;;2052088;28;20130;-92
2022/07/03 00:06:35;;;;;;;1.55;0.60;;;19.10;72.60;;;;;;2061221;28;20027;-93
2022/07/03 00:07:39;;;;;;;1.02;0.43;;;19.10;72.60;;;;;;2060886;28;20169;-92
2022/07/03 00:08:40;;;;;;;0.90;0.50;;;19.10;72.70;;;;;;2069116;28;20030;-92
2022/07/03 00:09:41;;;;;;;1.02;0.40;;;19.10;72.70;;;;;;2070907;28;20069;-92
2022/07/03 00:10:41;;;;;;;0.70;0.47;;;19.10;72.80;;;;;;2070623;28;20050;-92
2022/07/03 00:11:42;;;;;;;1.27;0.60;;;19.10;72.90;;;;;;2047558;29;20043;-92
2022/07/03 00:12:43;;;;;;;0.85;0.50;;;19.10;73.10;;;;;;2056278;28;20078;-92
2022/07/03 00:13:44;;;;;;;1.48;0.52;;;19.00;73.00;;;;;;2056037;28;20039;-91
2022/07/03 00:14:45;;;;;;;1.27;0.55;;;19.00;73.00;;;;;;2061607;28;20038;-92
2022/07/03 00:15:45;;;;;;;1.13;0.50;;;19.00;73.10;;;;;;2068100;28;20073;-92
2022/07/03 00:16:47;;;;;;;1.48;0.40;;;19.00;73.10;;;;;;2061299;28;20042;-92
2022/07/03 00:17:48;;;;;;;1.52;0.57;;;19.00;73.10;;;;;;2059841;28;20114;-92
2022/07/03 00:18:49;;;;;;;1.98;0.60;;;19.00;73.20;;;;;;2052854;28;20533;-92
2022/07/03 00:19:50;;;;;;;1.08;0.40;;;18.90;73.10;;;;;;2051173;28;20046;-92
2022/07/03 00:21:02;;;;;;;1.55;0.50;;;18.90;73.20;;;;;;2052160;28;20098;-93
2022/07/03 00:22:05;;;;;;;0.98;0.40;;;18.90;73.20;;;;;;2079588;28;20065;-93
2022/07/03 00:23:09;;;;;;;1.30;0.57;;;18.90;73.30;;;;;;2082497;28;20026;-93
2022/07/03 00:24:31;;;;;;;1.23;0.60;;;18.80;73.30;;;;;;2074196;28;20101;-92
2022/07/03 00:25:33;;;;;;;1.05;0.50;;;18.80;73.40;;;;;;2068576;28;20113;-93
2022/07/03 00:26:38;;;;;;;0.47;0.40;;;18.80;73.50;;;;;;2058208;28;20041;-92
2022/07/03 00:27:43;;;;;;;1.45;0.50;;;18.80;73.50;;;;;;2059068;28;20038;-92
2022/07/03 00:28:45;;;;;;;1.30;0.60;;;18.80;73.60;;;;;;2066188;28;20052;-91
2022/07/03 00:29:47;;;;;;;2.63;0.77;;;18.80;73.70;;;;;;2065658;28;20066;-93
2022/07/03 00:30:48;;;;;;;1.73;0.60;;;18.80;73.70;;;;;;2049714;28;20039;-92
2022/07/03 00:31:49;;;;;;;1.13;0.50;;;18.80;73.80;;;;;;2049380;28;20071;-93
2022/07/03 00:32:51;;;;;;;1.20;0.65;;;18.80;73.90;;;;;;2057784;28;20074;-93
2022/07/03 00:33:56;;;;;;;0.80;0.50;;;18.80;74.00;;;;;;2050221;28;20070;-93
2022/07/03 00:34:57;;;;;;;1.38;0.60;;;18.80;74.00;;;;;;2051161;28;20028;-93
2022/07/03 00:35:58;;;;;;;1.75;0.73;;;18.80;74.10;;;;;;2065547;28;20532;-92
2022/07/03 00:37:01;;;;;;;2.13;0.90;;;18.70;74.10;;;;;;2066377;28;20077;-92
2022/07/03 00:38:02;;;;;;;1.40;0.70;;;18.70;74.10;;;;;;2074967;28;20096;-93
2022/07/03 00:39:04;;;;;;;2.33;0.90;;;18.70;74.20;;;;;;2057853;28;20046;-93
2022/07/03 00:40:06;;;;;;;1.88;0.80;;;18.70;74.30;;;;;;2065726;28;20504;-93
2022/07/03 00:41:08;;;;;;;1.70;0.90;;;18.70;74.40;;;;;;2073710;28;20056;-93
2022/07/03 00:42:10;;;;;;;1.55;0.80;;;18.70;74.50;;;;;;2049963;28;20095;-93
2022/07/03 00:43:15;;;;;;;1.23;0.70;;;18.70;74.60;;;;;;2058421;28;20034;-93
2022/07/03 00:44:17;;;;;;;2.67;0.60;;;18.70;74.70;;;;;;2066938;28;20038;-90
2022/07/03 00:45:20;;;;;;;1.58;0.63;;;18.70;74.70;;;;;;2057717;28;20038;-92
2022/07/03 00:46:23;;;;;;;1.05;0.70;;;18.60;74.70;;;;;;2060585;28;20117;-91
2022/07/03 00:47:27;;;;;;;1.45;0.68;;;18.60;74.80;;;;;;2066778;28;20035;-93
2022/07/03 00:48:29;;;;;;;1.85;0.93;;;18.60;74.90;;;;;;2066859;28;20046;-92
2022/07/03 00:49:33;;;;;;;1.52;0.90;;;18.60;75.00;;;;;;2058149;28;20105;-93
2022/07/03 00:50:36;;;;;;;1.52;0.85;;;18.60;75.20;;;;;;2066556;28;20030;-93
2022/07/03 00:51:40;;;;;;;2.08;0.90;;;18.60;75.30;;;;;;2059210;28;20637;-93
2022/07/03 00:52:47;;;;;;;1.30;0.73;;;18.50;75.40;;;;;;2059464;28;20043;-93
2022/07/03 00:53:54;;;;;;;1.23;0.60;;;18.50;75.60;;;;;;2066183;28;20082;-93
2022/07/03 00:54:57;;;;;;;1.65;0.73;;;18.60;75.70;;;;;;2066229;28;20125;-92
2022/07/03 00:56:00;;;;;;;1.52;0.90;;;18.50;75.80;;;;;;2080442;28;20456;-93
2022/07/03 00:57:02;;;;;;;2.00;0.80;;;18.50;75.90;;;;;;2082035;28;20026;-93
2022/07/03 00:58:05;;;;;;;2.10;0.80;;;18.50;76.10;;;;;;2081800;28;20041;-93
2022/07/03 00:59:06;;;;;;;2.10;0.60;;;18.40;76.20;;;;;;2065818;28;20146;-93
2022/07/03 01:00:07;;;;;;;1.63;0.80;;;18.40;76.40;;;;;;2073525;28;20050;-93
2022/07/03 01:01:10;;;;;;;1.45;0.68;;;18.40;76.50;;;;;;2062576;28;20500;-93
2022/07/03 01:02:33;;;;;;;1.33;0.65;;;18.40;76.60;;;;;;2050230;28;20027;-92
2022/07/03 01:03:41;;;;;;;1.88;0.60;;;18.40;76.70;;;;;;2063546;28;20128;-93
2022/07/03 01:05:06;;;;;;;1.45;0.70;;;18.40;76.70;;;;;;2077168;28;20094;-92
2022/07/03 01:06:16;;;;;;;0.80;0.50;;;18.30;76.80;;;;;;2079052;28;20038;-93
2022/07/03 01:07:40;;;;;;;1.63;0.60;;;18.30;76.80;;;;;;2059920;28;20043;-93
2022/07/03 01:08:50;;;;;;;1.30;0.50;;;18.30;76.90;;;;;;2064365;28;20030;-93
2022/07/03 01:10:13;;;;;;;2.17;0.73;;;18.30;77.00;;;;;;2066999;28;20121;-93
2022/07/03 01:11:38;;;;;;;1.88;0.65;;;18.20;77.00;;;;;;2042518;29;20050;-92
2022/07/03 01:12:52;;;;;;;2.15;0.90;;;18.20;77.10;;;;;;2068557;28;20302;-92
2022/07/03 01:14:20;;;;;;;2.88;0.70;;;18.20;77.10;;;;;;2075679;28;20034;-91
2022/07/03 01:15:42;;;;;;;1.33;0.70;;;18.10;77.10;;;;;;2073376;28;20018;-92
2022/07/03 01:16:55;;;;;;;0.88;0.50;;;18.10;77.10;;;;;;2076116;28;20045;-92
2022/07/03 01:18:14;;;;;;;1.50;0.50;;;18.10;77.10;;;;;;2074284;28;20033;-92
2022/07/03 01:19:30;;;;;;;1.98;0.50;;;18.10;77.20;;;;;;2082411;28;20538;-92
2022/07/03 01:20:33;;;;;;;1.55;0.70;;;18.10;77.30;;;;;;2082361;28;20132;-92
2022/07/03 01:22:02;;;;;;;0.88;0.50;;;18.10;77.40;;;;;;2075138;28;20471;-92
2022/07/03 01:23:18;;;;;;;1.73;0.68;;;18.00;77.40;;;;;;2079190;28;20037;-92
2022/07/03 01:24:39;;;;;;;1.45;0.55;;;18.00;77.40;;;;;;2076512;28;20088;-92
2022/07/03 01:25:49;;;;;;;1.30;0.68;;;18.00;77.50;;;;;;2074896;28;20540;-92
2022/07/03 01:26:55;;;;;;;2.38;0.68;;;17.90;77.70;;;;;;2058486;28;20062;-92
2022/07/03 01:28:02;;;;;;;1.40;0.52;;;17.90;77.80;;;;;;2059857;28;20027;-92
2022/07/03 01:29:08;;;;;;;1.50;0.70;;;17.90;78.10;;;;;;2059540;28;20484;-92
2022/07/03 01:30:10;;;;;;;2.33;0.73;;;17.80;78.20;;;;;;2066759;28;20057;-93
2022/07/03 01:31:20;;;;;;;1.73;0.77;;;17.90;78.40;;;;;;2067331;28;20089;-93
2022/07/03 01:32:27;;;;;;;1.08;0.57;;;17.80;78.50;;;;;;2060346;28;20031;-93
2022/07/03 01:33:32;;;;;;;1.50;0.68;;;17.80;78.60;;;;;;2060442;28;20098;-94
2022/07/03 01:34:37;;;;;;;2.00;0.77;;;17.80;78.60;;;;;;2059587;28;20429;-94
2022/07/03 01:35:47;;;;;;;1.08;0.65;;;17.70;78.70;;;;;;2060755;28;20035;-93
2022/07/03 01:36:53;;;;;;;1.92;0.75;;;17.70;78.80;;;;;;2059447;28;20063;-93
2022/07/03 01:37:55;;;;;;;1.63;0.80;;;17.70;78.90;;;;;;2059678;28;20064;-93
2022/07/03 01:39:00;;;;;;;1.52;0.70;;;17.70;78.90;;;;;;2050759;28;20465;-93
2022/07/03 01:40:03;;;;;;;2.78;0.90;;;17.60;78.90;;;;;;2044023;28;20036;-93
2022/07/03 01:41:07;;;;;;;1.63;0.80;;;17.60;78.90;;;;;;2058917;28;20400;-93
2022/07/03 01:42:09;;;;;;;0.93;0.60;;;17.60;78.90;;;;;;2067168;28;20126;-93
2022/07/03 01:43:12;;;;;;;2.03;0.63;;;17.60;79.60;;;;;;2059785;28;20038;-93
2022/07/03 01:44:14;;;;;;;2.22;0.80;;;17.60;78.90;;;;;;2060502;28;20098;-94
2022/07/03 01:45:17;;;;;;;1.95;0.80;;;17.60;78.90;;;;;;2052419;28;20023;-93
2022/07/03 01:46:20;;;;;;;1.95;0.95;;;17.60;79.00;;;;;;2052864;28;20097;-93
2022/07/03 01:47:24;;;;;;;1.75;0.77;;;17.60;79.00;;;;;;2063957;28;20081;-93
2022/07/03 01:48:26;;;;;;;2.15;1.00;;;17.60;79.00;;;;;;2066069;28;20031;-92
2022/07/03 01:49:30;;;;;;;1.95;0.90;;;17.60;79.10;;;;;;2058450;28;20040;-92
2022/07/03 01:50:32;;;;;;;2.17;0.80;;;17.60;79.10;;;;;;2063781;28;20038;-94
2022/07/03 01:51:35;;;;;;;3.40;1.02;;;17.60;79.20;;;;;;2061604;28;20067;-92
2022/07/03 01:52:39;;;;;;;1.55;1.00;;;17.60;79.30;;;;;;2055325;28;20035;-91
2022/07/03 01:53:46;;;;;;;2.55;1.10;;;17.60;79.90;;;;;;2063462;28;20041;-92
2022/07/03 01:54:48;;;;;;;2.40;1.00;;;17.60;79.40;;;;;;2067665;28;20524;-92
2022/07/03 01:55:50;;;;;;;2.75;1.10;;;17.70;79.40;;;;;;2051478;28;20042;-91
2022/07/03 01:56:51;;;;;;;2.88;1.10;;;17.70;79.50;;;;;;2051800;28;20046;-93
2022/07/03 01:57:54;;;;;;;1.88;1.15;;;17.70;79.50;;;;;;2055625;28;20031;-88
2022/07/03 01:59:19;;;;;;;1.92;1.00;;;17.60;79.50;;;;;;2066778;28;20062;-92
2022/07/03 02:00:22;;;;;;;2.78;1.10;;;17.70;79.50;;;;;;2075302;28;20656;-93
2022/07/03 02:02:01;;;;;;;1.52;0.93;;;17.70;79.50;;;;;;2083815;28;20038;-93
2022/07/03 02:03:06;;;;;;;2.10;1.13;;;17.70;79.50;;;;;;2081034;28;20060;-91
2022/07/03 02:04:38;;;;;;;2.67;1.10;;;17.70;79.60;;;;;;2068475;28;20047;-91
2022/07/03 02:05:49;;;;;;;2.15;1.10;;;17.70;79.50;;;;;;2072752;28;20514;-92
2022/07/03 02:07:20;;;;;;;1.38;1.00;;;17.70;79.60;;;;;;2075600;28;20046;-92
2022/07/03 02:08:42;;;;;;;1.60;0.90;;;17.70;79.60;;;;;;2073424;28;20045;-92
2022/07/03 02:10:10;;;;;;;1.48;0.82;;;17.70;79.60;;;;;;2076527;28;20046;-92
2022/07/03 02:11:39;;;;;;;2.03;1.08;;;17.70;79.60;;;;;;2077405;28;20251;-93
2022/07/03 02:13:24;;;;;;;2.47;1.10;;;17.60;79.50;;;;;;2072835;28;20045;-91
2022/07/03 02:14:37;;;;;;;2.00;1.02;;;17.60;79.50;;;;;;2078511;28;20098;-91
2022/07/03 02:15:44;;;;;;;1.63;0.90;;;17.60;79.50;;;;;;2061094;28;20114;-92
2022/07/03 02:16:55;;;;;;;3.38;0.98;;;17.60;79.50;;;;;;2054052;28;20050;-92
2022/07/03 02:18:08;;;;;;;2.25;0.80;;;17.60;79.60;;;;;;2072314;28;20023;-93
2022/07/03 02:19:21;;;;;;;1.90;1.00;;;17.70;79.60;;;;;;2068519;28;20034;-91
2022/07/03 02:20:30;;;;;;;1.95;1.00;;;17.70;79.60;;;;;;2065344;28;20047;-92
2022/07/03 02:21:33;;;;;;;2.35;0.82;;;17.70;79.60;;;;;;2056828;28;20040;-92
2022/07/03 02:22:43;;;;;;;1.92;0.90;;;17.70;79.60;;;;;;2064717;28;20034;-93
2022/07/03 02:23:49;;;;;;;2.00;0.90;;;17.70;79.70;;;;;;2077849;28;20078;-92
2022/07/03 02:24:50;;;;;;;2.20;1.20;;;17.70;79.60;;;;;;2069853;28;20501;-92
2022/07/03 02:25:53;;;;;;;1.67;1.00;;;17.70;79.70;;;;;;2063186;28;20086;-92
2022/07/03 02:27:03;;;;;;;1.45;0.90;;;17.70;79.70;;;;;;2058897;28;20058;-92
2022/07/03 02:28:13;;;;;;;2.00;1.17;;;17.70;79.80;;;;;;2069604;28;20042;-92
2022/07/03 02:29:17;;;;;;;1.63;0.98;;;17.70;79.80;;;;;;2066879;28;20105;-92
2022/07/03 02:30:18;;;;;;;1.25;0.80;;;17.70;79.80;;;;;;2052915;28;20039;-92
2022/07/03 02:31:23;;;;;;;1.92;1.00;;;17.70;79.80;;;;;;2058981;28;20551;-92
2022/07/03 02:32:27;;;;;;;2.75;1.20;;;17.70;79.90;;;;;;2074914;28;20038;-92
2022/07/03 02:33:31;;;;;;;1.80;1.10;;;17.70;79.90;;;;;;2076211;28;20121;-92
2022/07/03 02:34:34;;;;;;;2.72;0.88;;;17.70;79.90;;;;;;2084427;28;20022;-92
2022/07/03 02:35:35;;;;;;;1.60;0.80;;;17.70;79.90;;;;;;2059849;28;20039;-92
2022/07/03 02:36:37;;;;;;;2.08;0.98;;;17.70;79.90;;;;;;2044573;29;20046;-92
2022/07/03 02:37:53;;;;;;;2.08;0.80;;;17.70;79.90;;;;;;2052843;28;20549;-92
2022/07/03 02:38:56;;;;;;;2.03;1.10;;;17.70;80.00;;;;;;2079941;28;20038;-93
2022/07/03 02:40:10;;;;;;;1.98;0.80;;;17.70;80.00;;;;;;2084997;28;20033;-93
2022/07/03 02:41:21;;;;;;;1.63;1.00;;;17.70;79.90;;;;;;2077285;28;20033;-92
2022/07/03 02:42:30;;;;;;;1.98;0.90;;;17.70;79.80;;;;;;2070892;28;20026;-92
2022/07/03 02:43:38;;;;;;;1.73;0.70;;;17.70;79.80;;;;;;2072132;28;20118;-92
2022/07/03 02:44:44;;;;;;;2.63;0.90;;;17.70;79.80;;;;;;2086998;28;20030;-92
2022/07/03 02:46:00;;;;;;;1.67;0.80;;;17.70;79.80;;;;;;2093471;28;20120;-92
2022/07/03 02:47:26;;;;;;;2.00;0.90;;;17.70;79.80;;;;;;2085643;28;20029;-92
2022/07/03 02:48:40;;;;;;;1.92;0.90;;;17.70;79.80;;;;;;2079177;28;20044;-92
2022/07/03 02:50:04;;;;;;;3.17;1.08;;;17.70;79.70;;;;;;2080221;28;20034;-93
2022/07/03 02:51:13;;;;;;;2.17;0.80;;;17.60;79.60;;;;;;2083883;28;20101;-93
2022/07/03 02:52:29;;;;;;;1.92;0.80;;;17.60;79.60;;;;;;2080171;28;20108;-91
2022/07/03 02:53:44;;;;;;;1.80;0.80;;;17.60;79.70;;;;;;2079374;28;20042;-91
2022/07/03 02:54:46;;;;;;;1.90;0.63;;;17.60;79.60;;;;;;2078214;28;20064;-92
2022/07/03 02:55:47;;;;;;;1.27;0.73;;;17.60;79.70;;;;;;2069092;28;20073;-92
2022/07/03 02:57:07;;;;;;;1.48;0.80;;;17.60;79.60;;;;;;2062651;28;20117;-92
2022/07/03 02:58:29;;;;;;;1.55;0.80;;;17.60;79.60;;;;;;2072203;28;20505;-92
2022/07/03 02:59:46;;;;;;;0.85;0.60;;;17.60;79.60;;;;;;2077362;28;20034;-91
2022/07/03 03:00:56;;;;;;;2.65;1.02;;;17.60;79.60;;;;;;2073954;28;20108;-91
2022/07/03 03:02:13;;;;;;;2.45;0.70;;;17.60;79.80;;;;;;2075840;28;20037;-91
2022/07/03 03:03:18;;;;;;;2.20;0.80;;;17.50;79.80;;;;;;2075594;28;20109;-91
2022/07/03 03:04:30;;;;;;;2.45;0.70;;;17.50;79.90;;;;;;2078579;28;20069;-92
2022/07/03 03:05:35;;;;;;;1.77;0.60;;;17.50;80.00;;;;;;2078587;28;20040;-92
2022/07/03 03:06:36;;;;;;;2.35;0.70;;;17.50;80.00;;;;;;2070107;28;20064;-92
2022/07/03 03:07:49;;;;;;;2.53;0.75;;;17.50;80.10;;;;;;2069642;28;20034;-92
2022/07/03 03:08:56;;;;;;;2.38;0.90;;;17.50;80.10;;;;;;2071691;28;20148;-91
2022/07/03 03:09:57;;;;;;;1.20;0.70;;;17.50;80.10;;;;;;2076133;28;20503;-91
2022/07/03 03:11:05;;;;;;;2.13;0.80;;;17.50;80.10;;;;;;2052277;28;20039;-91
2022/07/03 03:12:08;;;;;;;1.67;0.82;;;17.50;80.20;;;;;;2061877;28;20035;-92
2022/07/03 03:13:11;;;;;;;1.50;0.80;;;17.50;80.20;;;;;;2058580;28;20440;-92
2022/07/03 03:14:14;;;;;;;1.42;0.80;;;17.50;80.20;;;;;;2058176;28;20034;-92
2022/07/03 03:15:14;;;;;;;1.83;0.75;;;17.50;80.30;;;;;;2066518;28;20030;-92
2022/07/03 03:16:15;;;;;;;1.38;0.80;;;17.50;80.30;;;;;;2074350;28;20034;-92
2022/07/03 03:17:19;;;;;;;1.35;0.85;;;17.50;80.40;;;;;;2065092;28;20038;-92
2022/07/03 03:18:22;;;;;;;2.47;0.73;;;17.50;80.50;;;;;;2066890;28;20026;-92
2022/07/03 03:19:24;;;;;;;1.40;0.80;;;17.50;80.50;;;;;;2065780;28;20042;-92
2022/07/03 03:20:29;;;;;;;1.42;0.82;;;17.40;80.50;;;;;;2065999;28;20042;-92
2022/07/03 03:21:37;;;;;;;1.35;0.85;;;17.40;80.70;;;;;;2073982;28;20041;-91
2022/07/03 03:23:18;;;;;;;2.95;0.90;;;17.40;80.80;;;;;;2074283;28;20581;-91
2022/07/03 03:24:20;;;;;;;1.05;0.80;;;17.30;80.90;;;;;;2071358;28;20085;-92
2022/07/03 03:25:20;;;;;;;2.88;1.00;;;17.30;81.10;;;;;;2049668;28;20114;-92
2022/07/03 03:26:23;;;;;;;1.52;0.73;;;17.30;81.20;;;;;;2041928;28;20044;-92
2022/07/03 03:27:24;;;;;;;1.88;0.80;;;17.20;81.30;;;;;;2058170;28;20046;-92
2022/07/03 03:28:25;;;;;;;1.67;0.70;;;17.20;81.40;;;;;;2049912;28;20067;-92
2022/07/03 03:29:27;;;;;;;2.53;0.80;;;17.20;81.80;;;;;;2057989;28;20580;-92
2022/07/03 03:30:28;;;;;;;2.38;0.90;;;17.20;81.60;;;;;;2057614;28;20031;-93
2022/07/03 03:31:29;;;;;;;2.25;0.90;;;17.20;81.70;;;;;;2057901;28;20126;-92
2022/07/03 03:32:30;;;;;;;2.92;0.80;;;17.20;81.70;;;;;;2058047;28;20089;-92
2022/07/03 03:33:31;;;;;;;3.28;0.90;;;17.20;81.80;;;;;;2042046;28;20036;-92
2022/07/03 03:34:33;;;;;;;1.75;0.80;;;17.20;81.90;;;;;;2041836;29;20486;-92
2022/07/03 03:35:36;;;;;;;1.10;0.60;;;17.20;81.90;;;;;;2042001;28;20525;-92
2022/07/03 03:36:37;;;;;;;1.52;0.70;;;17.20;82.00;;;;;;2050195;28;20086;-92
2022/07/03 03:37:38;;;;;;;1.35;0.70;;;17.20;82.00;;;;;;2057907;28;20030;-92
2022/07/03 03:38:40;;;;;;;2.08;0.80;;;17.10;82.00;;;;;;2065823;28;20125;-89
2022/07/03 03:39:41;;;;;;;2.35;1.00;;;17.10;82.10;;;;;;2065730;28;20069;-92
2022/07/03 03:40:43;;;;;;;1.35;0.90;;;17.10;82.20;;;;;;2057727;28;20059;-91
2022/07/03 03:41:44;;;;;;;2.15;0.80;;;17.10;82.30;;;;;;2049853;28;20070;-92
2022/07/03 03:42:44;;;;;;;2.35;0.85;;;17.10;82.30;;;;;;2049697;28;20107;-92
2022/07/03 03:43:45;;;;;;;1.40;0.70;;;17.10;83.00;;;;;;2057254;28;20045;-92
2022/07/03 03:44:46;;;;;;;2.75;1.00;;;17.10;82.50;;;;;;2057650;28;20125;-92
2022/07/03 03:45:47;;;;;;;1.75;0.77;;;17.10;82.50;;;;;;2057479;28;20102;-91
2022/07/03 03:46:48;;;;;;;1.15;0.75;;;17.10;82.70;;;;;;2049561;29;20126;-91
2022/07/03 03:47:49;;;;;;;1.45;0.77;;;17.10;82.70;;;;;;2057890;28;20486;-92
2022/07/03 03:48:50;;;;;;;1.40;0.73;;;17.10;82.70;;;;;;2057661;28;20038;-91
2022/07/03 03:49:51;;;;;;;1.67;0.80;;;17.10;82.70;;;;;;2057673;28;20569;-92
2022/07/03 03:50:52;;;;;;;2.08;0.80;;;17.10;82.80;;;;;;2048890;28;20356;-92
2022/07/03 03:51:52;;;;;;;1.85;0.90;;;17.10;82.80;;;;;;2049491;28;20470;-91
2022/07/03 03:52:53;;;;;;;1.48;0.70;;;17.10;82.80;;;;;;2065754;28;20401;-92
2022/07/03 03:53:54;;;;;;;2.63;0.80;;;17.10;82.90;;;;;;2049742;28;20038;-92
2022/07/03 03:54:55;;;;;;;1.95;0.80;;;17.10;83.00;;;;;;2049522;28;20032;-92
2022/07/03 03:56:03;;;;;;;1.98;0.80;;;17.00;83.00;;;;;;2049666;28;20043;-92
2022/07/03 03:57:20;;;;;;;2.33;1.00;;;17.10;83.10;;;;;;2058512;28;20050;-92
2022/07/03 03:58:21;;;;;;;1.42;0.90;;;17.10;83.10;;;;;;2067899;28;20037;-91
2022/07/03 03:59:22;;;;;;;2.10;0.82;;;17.10;83.10;;;;;;2065536;28;20121;-92
2022/07/03 04:00:23;;;;;;;1.60;0.82;;;17.10;83.10;;;;;;2061840;28;20058;-92
2022/07/03 04:01:23;;;;;;;1.60;0.90;;;17.00;83.10;;;;;;2049260;28;20450;-92
2022/07/03 04:02:24;;;;;;;3.40;0.80;;;17.00;83.10;;;;;;2057580;28;20062;-92
2022/07/03 04:03:26;;;;;;;1.63;1.00;;;17.00;83.80;;;;;;2057153;28;20043;-92
2022/07/03 04:04:27;;;;;;;1.65;0.90;;;17.00;83.30;;;;;;2065832;28;20114;-92
2022/07/03 04:05:28;;;;;;;1.92;1.00;;;17.10;83.40;;;;;;2064885;28;20043;-92
2022/07/03 04:06:28;;;;;;;1.75;1.10;;;17.10;83.40;;;;;;2057107;28;20053;-91
2022/07/03 04:07:29;;;;;;;2.03;1.20;;;17.10;83.40;;;;;;2057411;28;20413;-92
2022/07/03 04:08:31;;;;;;;2.53;1.15;;;17.10;83.40;;;;;;2064503;28;20133;-91
2022/07/03 04:09:32;;;;;;;2.13;1.00;;;17.10;83.50;;;;;;2065864;28;20053;-91
2022/07/03 04:10:33;;;;;;;2.10;1.00;;;17.10;83.50;;;;;;2073492;28;20038;-92
2022/07/03 04:11:33;;;;;;;2.67;1.15;;;17.10;83.50;;;;;;2056995;28;20038;-92
2022/07/03 04:12:34;;;;;;;2.42;1.02;;;17.10;83.50;;;;;;2057343;28;20074;-91
2022/07/03 04:13:35;;;;;;;1.20;0.90;;;17.20;83.50;;;;;;2066124;28;20073;-92
2022/07/03 04:14:35;;;;;;;2.60;1.00;;;17.20;83.50;;;;;;2047513;28;20113;-92
2022/07/03 04:15:36;;;;;;;2.58;1.10;;;17.20;83.40;;;;;;2054179;28;20113;-92
2022/07/03 04:16:37;;;;;;;1.95;1.20;;;17.30;83.40;;;;;;2045944;28;20064;-92
2022/07/03 04:17:37;;;;;;;2.72;1.30;;;17.30;83.40;;;;;;2045156;29;20032;-93
2022/07/03 04:18:38;;;;;;;1.98;1.20;;;17.30;83.30;;;;;;2060978;28;20046;-91
2022/07/03 04:19:39;;;;;;;2.38;1.30;;;17.30;83.30;;;;;;2052747;28;20042;-92
2022/07/03 04:20:40;;;;;;;2.33;1.20;;;17.40;83.30;;;;;;2052703;28;20145;-93
2022/07/03 04:21:41;;;;;;;2.58;1.40;;;17.40;83.30;;;;;;2051273;28;20032;-92
2022/07/03 04:22:42;;;;;;;3.95;1.40;;;17.40;83.30;;;;;;2050991;28;20041;-93
2022/07/03 04:23:42;;;;;;;2.53;1.25;;;17.40;83.30;;;;;;2044572;29;20577;-92
2022/07/03 04:24:43;;;;;;;3.42;1.25;;;17.40;83.30;;;;;;2052411;28;20066;-92
2022/07/03 04:25:44;;;;;;;2.45;1.30;;;17.40;83.30;;;;;;2052510;28;20051;-91
2022/07/03 04:26:45;;;;;;;2.58;1.27;;;17.50;83.40;;;;;;2060175;28;20066;-92
2022/07/03 04:27:45;;;;;;;3.03;1.42;;;17.50;83.40;;;;;;2075450;28;20524;-91
2022/07/03 04:28:46;;;;;;;3.08;1.30;;;17.40;83.30;;;;;;2065986;28;20070;-92
2022/07/03 04:29:47;;;;;;;2.38;1.40;;;17.40;83.30;;;;;;2057409;28;20129;-92
2022/07/03 04:30:48;;;;;;;2.63;1.25;;;17.40;83.40;;;;;;2049309;28;20065;-91
2022/07/03 04:31:48;;;;;;;2.90;1.27;;;17.40;83.50;;;;;;2065410;28;20042;-92
2022/07/03 04:32:49;;;;;;;2.35;1.35;;;17.40;83.60;;;;;;2057419;28;20038;-92
2022/07/03 04:33:50;;;;;;;1.90;1.13;;;17.40;83.70;;;;;;2057165;28;20066;-92
2022/07/03 04:34:51;;;;;;;2.38;1.30;;;17.40;83.80;;;;;;2057003;28;20106;-92
2022/07/03 04:35:51;;;;;;;2.97;1.40;;;17.30;83.80;;;;;;2049153;28;20039;-92
2022/07/03 04:36:53;;;;;;;2.60;1.33;;;17.30;84.00;;;;;;2065224;28;20511;-92
2022/07/03 04:37:54;;;;;;;2.35;1.20;;;17.30;84.10;;;;;;2056944;28;20039;-92
2022/07/03 04:38:55;;;;;;;2.15;1.40;;;17.30;84.20;;;;;;2049521;28;20097;-92
2022/07/03 04:39:55;;;;;;;2.03;1.10;;;17.20;84.20;;;;;;2049366;28;20103;-92
2022/07/03 04:40:56;;;;;;;3.10;1.40;;;17.30;84.40;;;;;;2048850;29;20079;-91
2022/07/03 04:41:56;;;;;;;1.88;1.00;;;17.30;84.40;;;;;;2057619;28;20138;-92
2022/07/03 04:42:57;;;;;;;3.83;1.48;;;17.20;84.30;;;;;;2049110;28;20405;-90
2022/07/03 04:43:58;;;;;;;1.92;1.20;;;17.20;84.40;;;;;;2057115;28;20050;-91
2022/07/03 04:44:59;;;;;;;3.42;1.40;;;17.20;84.40;;;;;;2065131;28;20069;-92
2022/07/03 04:45:59;;;;;;;2.00;1.20;;;17.20;84.50;;;;;;2033076;29;20534;-92
2022/07/03 04:47:00;;;;;;;2.15;1.10;;;17.20;84.50;;;;;;2040958;29;20048;-92
2022/07/03 04:48:01;;;;;;;2.55;1.20;;;17.10;84.60;;;;;;2041458;29;20039;-92
2022/07/03 04:49:01;;;;;;;2.10;1.33;;;17.10;84.70;;;;;;2041213;29;20505;-92
2022/07/03 04:50:02;;;;;;;2.85;1.40;;;17.10;84.70;;;;;;2041303;29;20047;-91
2022/07/03 04:51:03;;;;;;;1.95;1.27;;;17.10;84.70;;;;;;2034007;29;20028;-91
2022/07/03 04:52:04;;;;;;;2.30;1.33;;;17.10;84.80;;;;;;2056938;28;20073;-92
2022/07/03 04:53:05;;;;;;;1.98;1.15;;;17.10;84.80;;;;;;2041163;29;20047;-92
2022/07/03 04:54:06;;;;;;;1.95;1.35;;;17.10;84.90;;;;;;2049162;28;20040;-92
2022/07/03 04:55:09;;;;;;;2.85;1.60;;;17.10;84.90;;;;;;2057180;28;20215;-91
2022/07/03 04:56:10;;;;;;;2.10;1.30;;;17.10;85.00;;;;;;2064964;28;20054;-92
2022/07/03 04:57:11;;;;;;;3.60;1.20;;;17.10;85.00;;;;;;2057020;28;20043;-91
2022/07/03 04:58:12;;;;;;;3.53;1.63;;;17.20;85.00;;;;;;2063465;28;20030;-91
2022/07/03 04:59:12;;;;;;;2.85;1.27;;;17.20;85.00;;;;;;2048866;28;20035;-91
2022/07/03 05:01:02;;;;;;;2.42;1.10;;;17.30;85.00;;;;;;2067903;27;1365278;-92
2022/07/03 05:02:03;;;;;;;3.53;1.30;;;17.30;84.80;;;;;;2097125;28;20028;-92
2022/07/03 05:03:04;;;;;;;2.03;1.20;;;17.40;84.70;;;;;;2089178;28;20052;-93
2022/07/03 05:04:05;;;;;;;2.10;1.25;;;17.60;84.60;;;;;;2089008;28;20116;-92
2022/07/03 05:05:07;;;;;;;2.38;1.33;;;17.60;84.50;;;;;;2080860;28;20029;-92
2022/07/03 05:06:18;;;;;;;2.45;1.30;;;17.70;84.30;;;;;;2088977;28;20038;-92
2022/07/03 05:07:52;;;;;;;3.10;1.30;;;17.80;84.10;;;;;;2092042;28;20060;-92
2022/07/03 05:09:15;;;;;;;2.88;1.17;;;18.00;83.80;;;;;;2101651;28;20067;-92
2022/07/03 05:10:47;;;;;;;1.70;0.98;;;18.20;83.40;;;;;;2105023;28;20110;-93
2022/07/03 05:12:24;;;;;;;2.22;1.25;;;18.40;83.10;;;;;;2092694;28;20080;-92
2022/07/03 05:14:36;;;;;;;1.95;0.95;;;18.50;82.70;;;;;;2088846;28;20029;-92
2022/07/03 05:23:21;;;;;;;1.88;1.08;;;19.30;80.90;;;;;;2104797;28;20056;-92
2022/07/03 05:24:55;;;;;;;1.60;0.90;;;19.40;80.80;;;;;;2094933;28;20455;-92
2022/07/03 05:26:35;;;;;;;1.40;0.85;;;19.40;80.60;;;;;;2086900;28;20065;-92
2022/07/03 05:28:51;;;;;;;2.45;0.93;;;19.40;80.60;;;;;;2090440;28;20403;-92
2022/07/03 05:31:02;;;;;;;1.17;0.80;;;19.30;80.70;;;;;;2096773;28;20079;-93
2022/07/03 05:34:35;;;;;;;2.08;1.02;;;19.10;81.20;;;;;;2112292;28;20043;-92
2022/07/03 05:36:36;;;;;;;1.80;0.90;;;19.10;81.20;;;;;;2114171;28;20028;-93
2022/07/03 05:40:51;;;;;;;2.50;0.85;;;19.40;80.70;;;;;;2106576;28;20036;-93
2022/07/03 05:42:52;;;;;;;1.58;0.95;;;19.50;80.50;;;;;;2080530;28;20034;-92
2022/07/03 05:44:44;;;;;;;1.88;0.95;;;19.40;80.50;;;;;;2097022;28;20430;-92
2022/07/03 05:46:31;;;;;;;2.55;1.05;;;19.40;80.70;;;;;;2105816;28;20399;-92
2022/07/03 05:47:55;;;;;;;2.35;0.98;;;19.30;80.90;;;;;;2104340;28;20442;-92
2022/07/03 05:48:55;;;;;;;1.85;1.00;;;19.20;81.00;;;;;;2094016;28;20049;-94
2022/07/03 05:49:56;;;;;;;2.63;1.00;;;19.10;81.70;;;;;;2086785;28;20542;-92
2022/07/03 05:50:57;;;;;;;1.75;0.98;;;19.10;81.30;;;;;;2094564;28;20045;-93
2022/07/03 05:51:57;;;;;;;1.95;1.00;;;19.10;81.60;;;;;;2086046;28;20053;-93
2022/07/03 05:52:58;;;;;;;2.45;1.13;;;19.00;81.70;;;;;;2101911;28;20033;-93
2022/07/03 05:53:59;;;;;;;2.88;1.00;;;19.00;81.90;;;;;;2092563;28;20096;-92
2022/07/03 05:55:00;;;;;;;1.42;1.00;;;19.00;82.10;;;;;;2082619;28;20523;-92
2022/07/03 05:56:00;;;;;;;1.80;1.00;;;19.00;82.10;;;;;;2074952;28;20034;-92
2022/07/03 05:57:01;;;;;;;3.17;1.15;;;19.10;82.10;;;;;;2090891;28;20079;-92
2022/07/03 05:58:02;;;;;;;1.90;0.93;;;19.10;81.80;;;;;;2091366;28;20030;-92
2022/07/03 05:59:03;;;;;;;1.67;1.00;;;19.20;81.60;;;;;;2099366;28;20067;-92
2022/07/03 06:00:04;;;;;;;2.20;1.00;;;19.30;81.50;;;;;;2080609;28;20480;-93
2022/07/03 06:01:05;;;;;;;2.35;1.00;;;19.40;81.20;;;;;;2080490;28;20480;-94
2022/07/03 06:02:06;;;;;;;2.10;1.10;;;19.50;81.00;;;;;;2080421;28;20100;-92
2022/07/03 06:03:07;;;;;;;3.15;1.02;;;19.60;80.80;;;;;;2080376;28;20033;-93
2022/07/03 06:04:08;;;;;;;1.48;0.98;;;19.70;80.50;;;;;;2088665;28;20038;-93